sensor_id;sensor_type;location;lat;lon;timestamp;temperature;humidity
11925;DHT22;6022;48.768;18.608;2024-01-15T00:01:01;-0.60;99.90
11925;DHT22;6022;48.768;18.608;2024-01-15T00:03:28;-0.60;99.90
11925;DHT22;6022;48.768;18.608;2024-01-15T00:05:55;-0.60;99.90
11925;DHT22;6022;48.768;18.608;2024-01-15T00:08:23;-0.40;99.90
11925;DHT22;6022;48.768;18.608;2024-01-15T00:10:50;-0.60;99.90
11925;DHT22;6022;48.768;18.608;2024-01-15T00:13:17;-0.80;99.90
11925;DHT22;6022;48.768;18.608;2024-01-15T00:15:44;-0.50;99.90
11925;DHT22;6022;48.768;18.608;2024-01-15T00:18:11;-0.50;99.90
11925;DHT22;6022;48.768;18.608;2024-01-15T00:20:38;-0.50;99.90
11925;DHT22;6022;48.768;18.608;2024-01-15T00:23:05;-0.60;99.90
11925;DHT22;6022;48.768;18.608;2024-01-15T00:25:32;-0.50;99.90
11925;DHT22;6022;48.768;18.608;2024-01-15T00:27:59;-0.60;99.90
11925;DHT22;6022;48.768;18.608;2024-01-15T00:30:27;-0.60;99.90
11925;DHT22;6022;48.768;18.608;2024-01-15T00:32:54;-0.70;99.90
11925;DHT22;6022;48.768;18.608;2024-01-15T00:35:21;-0.50;99.90
11925;DHT22;6022;48.768;18.608;2024-01-15T00:37:48;-0.60;99.90
11925;DHT22;6022;48.768;18.608;2024-01-15T00:40:15;-0.70;99.90
11925;DHT22;6022;48.768;18.608;2024-01-15T00:42:42;-0.60;99.90
11925;DHT22;6022;48.768;18.608;2024-01-15T00:45:10;-0.70;99.90
11925;DHT22;6022;48.768;18.608;2024-01-15T00:47:37;-0.60;99.90
11925;DHT22;6022;48.768;18.608;2024-01-15T00:50:05;-0.90;99.90
11925;DHT22;6022;48.768;18.608;2024-01-15T00:52:32;-0.60;99.90
11925;DHT22;6022;48.768;18.608;2024-01-15T00:54:59;-0.80;99.90
11925;DHT22;6022;48.768;18.608;2024-01-15T00:57:26;-1.00;99.90
11925;DHT22;6022;48.768;18.608;2024-01-15T00:59:53;-0.90;99.90
11925;DHT22;6022;48.768;18.608;2024-01-15T01:02:21;-0.70;99.90
11925;DHT22;6022;48.768;18.608;2024-01-15T01:04:48;-0.90;99.90
11925;DHT22;6022;48.768;18.608;2024-01-15T01:07:14;-0.90;99.90
11925;DHT22;6022;48.768;18.608;2024-01-15T01:09:41;-1.20;99.90
11925;DHT22;6022;48.768;18.608;2024-01-15T01:12:09;-0.90;99.90
11925;DHT22;6022;48.768;18.608;2024-01-15T01:14:36;-1.00;99.90
11925;DHT22;6022;48.768;18.608;2024-01-15T01:17:03;-1.00;99.90
11925;DHT22;6022;48.768;18.608;2024-01-15T01:19:30;-0.90;99.90
11925;DHT22;6022;48.768;18.608;2024-01-15T01:21:57;-1.10;99.90
11925;DHT22;6022;48.768;18.608;2024-01-15T01:24:24;-1.10;99.90
11925;DHT22;6022;48.768;18.608;2024-01-15T01:26:51;-1.20;99.90
11925;DHT22;6022;48.768;18.608;2024-01-15T01:29:18;-0.90;99.90
11925;DHT22;6022;48.768;18.608;2024-01-15T01:31:45;-1.20;99.90
11925;DHT22;6022;48.768;18.608;2024-01-15T01:34:14;-1.20;99.90
11925;DHT22;6022;48.768;18.608;2024-01-15T01:36:43;-1.20;99.90
11925;DHT22;6022;48.768;18.608;2024-01-15T01:39:10;-1.20;99.90
11925;DHT22;6022;48.768;18.608;2024-01-15T01:41:38;-1.20;99.90
11925;DHT22;6022;48.768;18.608;2024-01-15T01:44:06;-1.20;99.90
11925;DHT22;6022;48.768;18.608;2024-01-15T01:46:36;-1.10;99.90
11925;DHT22;6022;48.768;18.608;2024-01-15T01:49:08;-1.10;99.90
11925;DHT22;6022;48.768;18.608;2024-01-15T01:51:36;-1.10;99.90
11925;DHT22;6022;48.768;18.608;2024-01-15T01:54:05;-1.10;99.90
11925;DHT22;6022;48.768;18.608;2024-01-15T01:56:34;-0.90;99.90
11925;DHT22;6022;48.768;18.608;2024-01-15T01:59:02;-1.10;99.90
11925;DHT22;6022;48.768;18.608;2024-01-15T02:01:31;-1.10;99.90
11925;DHT22;6022;48.768;18.608;2024-01-15T02:03:58;-0.90;99.90
11925;DHT22;6022;48.768;18.608;2024-01-15T02:06:27;-1.10;99.90
11925;DHT22;6022;48.768;18.608;2024-01-15T02:08:54;-1.10;99.90
11925;DHT22;6022;48.768;18.608;2024-01-15T02:11:21;-1.00;99.90
11925;DHT22;6022;48.768;18.608;2024-01-15T02:13:49;-0.90;99.90
11925;DHT22;6022;48.768;18.608;2024-01-15T02:16:16;-1.10;99.90
11925;DHT22;6022;48.768;18.608;2024-01-15T02:18:46;-0.90;99.90
11925;DHT22;6022;48.768;18.608;2024-01-15T02:21:13;-1.10;99.90
11925;DHT22;6022;48.768;18.608;2024-01-15T02:23:40;-1.10;99.90
11925;DHT22;6022;48.768;18.608;2024-01-15T02:26:07;-1.20;99.90
11925;DHT22;6022;48.768;18.608;2024-01-15T02:28:35;-1.30;99.90
11925;DHT22;6022;48.768;18.608;2024-01-15T02:31:02;-1.40;99.90
11925;DHT22;6022;48.768;18.608;2024-01-15T02:33:29;-1.40;99.90
11925;DHT22;6022;48.768;18.608;2024-01-15T02:35:56;-1.00;99.90
11925;DHT22;6022;48.768;18.608;2024-01-15T02:38:23;-1.50;99.90
11925;DHT22;6022;48.768;18.608;2024-01-15T02:40:50;-1.50;99.90
11925;DHT22;6022;48.768;18.608;2024-01-15T02:43:18;-1.60;99.90
11925;DHT22;6022;48.768;18.608;2024-01-15T02:45:46;-1.60;99.90
11925;DHT22;6022;48.768;18.608;2024-01-15T02:48:16;-1.70;99.90
11925;DHT22;6022;48.768;18.608;2024-01-15T02:50:43;-1.60;99.90
11925;DHT22;6022;48.768;18.608;2024-01-15T02:53:10;-2.00;99.90
11925;DHT22;6022;48.768;18.608;2024-01-15T02:55:37;-1.60;99.90
11925;DHT22;6022;48.768;18.608;2024-01-15T02:58:04;-1.70;99.90
11925;DHT22;6022;48.768;18.608;2024-01-15T03:00:31;-1.70;99.90
11925;DHT22;6022;48.768;18.608;2024-01-15T03:02:59;-1.60;99.90
11925;DHT22;6022;48.768;18.608;2024-01-15T03:05:26;-1.60;99.90
11925;DHT22;6022;48.768;18.608;2024-01-15T03:07:53;-1.50;99.90
11925;DHT22;6022;48.768;18.608;2024-01-15T03:10:20;-1.60;99.90
11925;DHT22;6022;48.768;18.608;2024-01-15T03:12:47;-1.60;99.90
11925;DHT22;6022;48.768;18.608;2024-01-15T03:15:15;-1.20;99.90
11925;DHT22;6022;48.768;18.608;2024-01-15T03:17:42;-1.50;99.90
11925;DHT22;6022;48.768;18.608;2024-01-15T03:20:10;-1.60;99.90
11925;DHT22;6022;48.768;18.608;2024-01-15T03:22:37;-1.50;99.90
11925;DHT22;6022;48.768;18.608;2024-01-15T03:25:05;-1.60;99.90
11925;DHT22;6022;48.768;18.608;2024-01-15T03:27:33;-1.20;99.90
11925;DHT22;6022;48.768;18.608;2024-01-15T03:30:00;-1.50;99.90
11925;DHT22;6022;48.768;18.608;2024-01-15T03:32:29;-1.50;99.90
11925;DHT22;6022;48.768;18.608;2024-01-15T03:34:56;-1.40;99.90
11925;DHT22;6022;48.768;18.608;2024-01-15T03:37:23;-1.30;99.90
11925;DHT22;6022;48.768;18.608;2024-01-15T03:39:50;-1.60;99.90
11925;DHT22;6022;48.768;18.608;2024-01-15T03:42:17;-1.50;99.90
11925;DHT22;6022;48.768;18.608;2024-01-15T03:44:44;-1.40;99.90
11925;DHT22;6022;48.768;18.608;2024-01-15T03:47:11;-1.40;99.90
11925;DHT22;6022;48.768;18.608;2024-01-15T03:49:38;-1.40;99.90
11925;DHT22;6022;48.768;18.608;2024-01-15T03:52:05;-1.30;99.90
11925;DHT22;6022;48.768;18.608;2024-01-15T03:54:32;-1.10;99.90
11925;DHT22;6022;48.768;18.608;2024-01-15T03:56:59;-1.40;99.90
11925;DHT22;6022;48.768;18.608;2024-01-15T03:59:27;-1.40;99.90
11925;DHT22;6022;48.768;18.608;2024-01-15T04:01:53;-1.40;99.90
11925;DHT22;6022;48.768;18.608;2024-01-15T04:04:21;-1.20;99.90
11925;DHT22;6022;48.768;18.608;2024-01-15T04:06:48;-1.40;99.90
11925;DHT22;6022;48.768;18.608;2024-01-15T04:09:15;-1.40;99.90
11925;DHT22;6022;48.768;18.608;2024-01-15T04:11:43;-1.40;99.90
11925;DHT22;6022;48.768;18.608;2024-01-15T04:14:10;-1.30;99.90
11925;DHT22;6022;48.768;18.608;2024-01-15T04:16:37;-1.50;99.90
11925;DHT22;6022;48.768;18.608;2024-01-15T04:19:04;-1.30;99.90
11925;DHT22;6022;48.768;18.608;2024-01-15T04:21:32;-1.30;99.90
11925;DHT22;6022;48.768;18.608;2024-01-15T04:23:59;-1.40;99.90
11925;DHT22;6022;48.768;18.608;2024-01-15T04:26:26;-1.30;99.90
11925;DHT22;6022;48.768;18.608;2024-01-15T04:28:53;-1.50;99.90
11925;DHT22;6022;48.768;18.608;2024-01-15T04:31:22;-1.30;99.90
11925;DHT22;6022;48.768;18.608;2024-01-15T04:33:49;-1.20;99.90
11925;DHT22;6022;48.768;18.608;2024-01-15T04:36:17;-1.50;99.90
11925;DHT22;6022;48.768;18.608;2024-01-15T04:38:47;-1.10;99.90
11925;DHT22;6022;48.768;18.608;2024-01-15T04:41:16;-1.30;99.90
11925;DHT22;6022;48.768;18.608;2024-01-15T04:43:44;-1.20;99.90
11925;DHT22;6022;48.768;18.608;2024-01-15T04:46:11;-1.40;99.90
11925;DHT22;6022;48.768;18.608;2024-01-15T04:48:38;-1.30;99.90
11925;DHT22;6022;48.768;18.608;2024-01-15T04:51:05;-1.30;99.90
11925;DHT22;6022;48.768;18.608;2024-01-15T04:53:34;-1.30;99.90
11925;DHT22;6022;48.768;18.608;2024-01-15T04:56:01;-1.30;99.90
11925;DHT22;6022;48.768;18.608;2024-01-15T04:58:29;-1.30;99.90
11925;DHT22;6022;48.768;18.608;2024-01-15T05:00:56;-1.30;99.90
11925;DHT22;6022;48.768;18.608;2024-01-15T05:03:23;-1.30;99.90
11925;DHT22;6022;48.768;18.608;2024-01-15T05:05:50;-1.30;99.90
11925;DHT22;6022;48.768;18.608;2024-01-15T05:08:17;-1.30;99.90
11925;DHT22;6022;48.768;18.608;2024-01-15T05:10:44;-1.00;99.90
11925;DHT22;6022;48.768;18.608;2024-01-15T05:13:12;-1.30;99.90
11925;DHT22;6022;48.768;18.608;2024-01-15T05:15:39;-1.30;99.90
11925;DHT22;6022;48.768;18.608;2024-01-15T05:18:06;-1.00;99.90
11925;DHT22;6022;48.768;18.608;2024-01-15T05:20:34;-1.20;99.90
11925;DHT22;6022;48.768;18.608;2024-01-15T05:23:01;-1.20;99.90
11925;DHT22;6022;48.768;18.608;2024-01-15T05:25:28;-1.30;99.90
11925;DHT22;6022;48.768;18.608;2024-01-15T05:27:55;-1.20;99.90
11925;DHT22;6022;48.768;18.608;2024-01-15T05:30:22;-1.10;99.90
11925;DHT22;6022;48.768;18.608;2024-01-15T05:32:50;-1.20;99.90
11925;DHT22;6022;48.768;18.608;2024-01-15T05:35:17;-0.90;99.90
11925;DHT22;6022;48.768;18.608;2024-01-15T05:37:45;-1.30;99.90
11925;DHT22;6022;48.768;18.608;2024-01-15T05:40:12;-1.00;99.90
11925;DHT22;6022;48.768;18.608;2024-01-15T05:42:41;-1.00;99.90
11925;DHT22;6022;48.768;18.608;2024-01-15T05:45:08;-1.00;99.90
11925;DHT22;6022;48.768;18.608;2024-01-15T05:47:36;-1.10;99.90
11925;DHT22;6022;48.768;18.608;2024-01-15T05:50:03;-1.00;99.90
11925;DHT22;6022;48.768;18.608;2024-01-15T05:52:31;-1.10;99.90
11925;DHT22;6022;48.768;18.608;2024-01-15T05:54:59;-1.00;99.90
11925;DHT22;6022;48.768;18.608;2024-01-15T05:57:28;-0.90;99.90
11925;DHT22;6022;48.768;18.608;2024-01-15T05:59:55;-0.90;99.90
11925;DHT22;6022;48.768;18.608;2024-01-15T06:02:22;-0.60;99.90
11925;DHT22;6022;48.768;18.608;2024-01-15T06:04:49;-0.50;99.90
11925;DHT22;6022;48.768;18.608;2024-01-15T06:07:16;-0.80;99.90
11925;DHT22;6022;48.768;18.608;2024-01-15T06:09:44;-0.50;99.90
11925;DHT22;6022;48.768;18.608;2024-01-15T06:12:11;-0.50;99.90
11925;DHT22;6022;48.768;18.608;2024-01-15T06:14:38;-0.80;99.90
11925;DHT22;6022;48.768;18.608;2024-01-15T06:17:05;-0.80;99.90
11925;DHT22;6022;48.768;18.608;2024-01-15T06:19:32;-0.80;99.90
11925;DHT22;6022;48.768;18.608;2024-01-15T06:22:00;-0.80;99.90
11925;DHT22;6022;48.768;18.608;2024-01-15T06:24:27;-0.60;99.90
11925;DHT22;6022;48.768;18.608;2024-01-15T06:26:54;-0.60;99.90
11925;DHT22;6022;48.768;18.608;2024-01-15T06:29:21;-0.50;99.90
11925;DHT22;6022;48.768;18.608;2024-01-15T06:31:48;-0.90;99.90
11925;DHT22;6022;48.768;18.608;2024-01-15T06:34:16;-0.80;99.90
11925;DHT22;6022;48.768;18.608;2024-01-15T06:36:43;-0.70;99.90
11925;DHT22;6022;48.768;18.608;2024-01-15T06:39:11;-0.70;99.90
11925;DHT22;6022;48.768;18.608;2024-01-15T06:41:38;-0.80;99.90
11925;DHT22;6022;48.768;18.608;2024-01-15T06:44:11;-0.90;99.90
11925;DHT22;6022;48.768;18.608;2024-01-15T06:46:42;-0.80;99.90
11925;DHT22;6022;48.768;18.608;2024-01-15T06:49:11;-0.90;99.90
11925;DHT22;6022;48.768;18.608;2024-01-15T06:51:38;-0.80;99.90
11925;DHT22;6022;48.768;18.608;2024-01-15T06:54:06;-0.70;99.90
11925;DHT22;6022;48.768;18.608;2024-01-15T06:56:33;-0.90;99.90
11925;DHT22;6022;48.768;18.608;2024-01-15T06:59:00;-0.90;99.90
11925;DHT22;6022;48.768;18.608;2024-01-15T07:01:29;-0.60;99.90
11925;DHT22;6022;48.768;18.608;2024-01-15T07:03:56;-0.90;99.90
11925;DHT22;6022;48.768;18.608;2024-01-15T07:06:23;-0.80;99.90
11925;DHT22;6022;48.768;18.608;2024-01-15T07:08:50;-0.80;99.90
11925;DHT22;6022;48.768;18.608;2024-01-15T07:11:17;-0.90;99.90
11925;DHT22;6022;48.768;18.608;2024-01-15T07:13:45;-0.70;99.90
11925;DHT22;6022;48.768;18.608;2024-01-15T07:16:12;-1.00;99.90
11925;DHT22;6022;48.768;18.608;2024-01-15T07:18:39;-1.00;99.90
11925;DHT22;6022;48.768;18.608;2024-01-15T07:21:06;-1.00;99.90
11925;DHT22;6022;48.768;18.608;2024-01-15T07:23:36;-0.60;99.90
11925;DHT22;6022;48.768;18.608;2024-01-15T07:26:04;-0.60;99.90
11925;DHT22;6022;48.768;18.608;2024-01-15T07:28:32;-0.80;99.90
11925;DHT22;6022;48.768;18.608;2024-01-15T07:30:59;-0.50;99.90
11925;DHT22;6022;48.768;18.608;2024-01-15T07:33:28;-0.90;99.90
11925;DHT22;6022;48.768;18.608;2024-01-15T07:35:56;-0.80;99.90
11925;DHT22;6022;48.768;18.608;2024-01-15T07:38:26;-1.00;99.90
11925;DHT22;6022;48.768;18.608;2024-01-15T07:40:53;-0.80;99.90
11925;DHT22;6022;48.768;18.608;2024-01-15T07:43:21;-0.90;99.90
11925;DHT22;6022;48.768;18.608;2024-01-15T07:45:49;-0.60;99.90
11925;DHT22;6022;48.768;18.608;2024-01-15T07:48:16;-1.10;99.90
11925;DHT22;6022;48.768;18.608;2024-01-15T07:50:43;-0.90;99.90
11925;DHT22;6022;48.768;18.608;2024-01-15T07:53:11;-0.70;99.90
11925;DHT22;6022;48.768;18.608;2024-01-15T07:55:38;-0.90;99.90
11925;DHT22;6022;48.768;18.608;2024-01-15T07:58:05;-0.90;99.90
11925;DHT22;6022;48.768;18.608;2024-01-15T08:00:42;-0.90;99.90
11925;DHT22;6022;48.768;18.608;2024-01-15T08:03:11;-1.00;99.90
11925;DHT22;6022;48.768;18.608;2024-01-15T08:05:42;-0.90;99.90
11925;DHT22;6022;48.768;18.608;2024-01-15T08:08:10;-0.70;99.90
11925;DHT22;6022;48.768;18.608;2024-01-15T08:10:37;-0.60;99.90
11925;DHT22;6022;48.768;18.608;2024-01-15T08:13:04;-0.60;99.90
11925;DHT22;6022;48.768;18.608;2024-01-15T08:15:31;-0.80;99.90
11925;DHT22;6022;48.768;18.608;2024-01-15T08:17:58;-0.70;99.90
11925;DHT22;6022;48.768;18.608;2024-01-15T08:20:26;-0.60;99.90
11925;DHT22;6022;48.768;18.608;2024-01-15T08:22:53;-0.60;99.90
11925;DHT22;6022;48.768;18.608;2024-01-15T08:25:20;-0.50;99.90
11925;DHT22;6022;48.768;18.608;2024-01-15T08:27:47;-0.50;99.90
11925;DHT22;6022;48.768;18.608;2024-01-15T08:30:15;-0.70;99.90
11925;DHT22;6022;48.768;18.608;2024-01-15T08:32:42;-0.20;99.90
11925;DHT22;6022;48.768;18.608;2024-01-15T08:35:10;-0.10;99.90
11925;DHT22;6022;48.768;18.608;2024-01-15T08:37:38;-0.10;99.90
11925;DHT22;6022;48.768;18.608;2024-01-15T08:40:06;0.10;99.90
11925;DHT22;6022;48.768;18.608;2024-01-15T08:42:33;0.20;99.90
11925;DHT22;6022;48.768;18.608;2024-01-15T08:45:01;0.50;99.90
11925;DHT22;6022;48.768;18.608;2024-01-15T08:47:28;0.50;99.90
11925;DHT22;6022;48.768;18.608;2024-01-15T08:49:55;0.30;99.90
11925;DHT22;6022;48.768;18.608;2024-01-15T08:52:23;0.50;99.90
11925;DHT22;6022;48.768;18.608;2024-01-15T08:54:50;0.50;99.90
11925;DHT22;6022;48.768;18.608;2024-01-15T08:57:17;0.40;99.90
11925;DHT22;6022;48.768;18.608;2024-01-15T08:59:44;0.50;99.90
11925;DHT22;6022;48.768;18.608;2024-01-15T09:02:12;0.40;99.90
11925;DHT22;6022;48.768;18.608;2024-01-15T09:04:39;0.40;99.90
11925;DHT22;6022;48.768;18.608;2024-01-15T09:07:07;0.50;99.90
11925;DHT22;6022;48.768;18.608;2024-01-15T09:09:34;0.30;99.90
11925;DHT22;6022;48.768;18.608;2024-01-15T09:12:02;0.30;99.90
11925;DHT22;6022;48.768;18.608;2024-01-15T09:14:29;0.40;99.90
11925;DHT22;6022;48.768;18.608;2024-01-15T09:17:04;0.50;99.90
11925;DHT22;6022;48.768;18.608;2024-01-15T09:19:32;0.00;99.90
11925;DHT22;6022;48.768;18.608;2024-01-15T09:21:59;-0.10;99.90
11925;DHT22;6022;48.768;18.608;2024-01-15T09:24:26;0.10;99.90
11925;DHT22;6022;48.768;18.608;2024-01-15T09:26:55;0.10;99.90
11925;DHT22;6022;48.768;18.608;2024-01-15T09:29:22;0.10;99.90
11925;DHT22;6022;48.768;18.608;2024-01-15T09:31:51;-0.20;99.90
11925;DHT22;6022;48.768;18.608;2024-01-15T09:34:19;0.10;99.90
11925;DHT22;6022;48.768;18.608;2024-01-15T09:36:46;0.20;99.90
11925;DHT22;6022;48.768;18.608;2024-01-15T09:39:14;0.50;99.90
11925;DHT22;6022;48.768;18.608;2024-01-15T09:41:43;0.30;99.90
11925;DHT22;6022;48.768;18.608;2024-01-15T09:44:10;0.50;99.90
11925;DHT22;6022;48.768;18.608;2024-01-15T09:46:39;0.70;99.90
11925;DHT22;6022;48.768;18.608;2024-01-15T09:49:07;0.50;99.90
11925;DHT22;6022;48.768;18.608;2024-01-15T09:51:35;0.50;99.90
11925;DHT22;6022;48.768;18.608;2024-01-15T09:54:04;0.50;99.90
11925;DHT22;6022;48.768;18.608;2024-01-15T09:56:31;0.50;99.90
11925;DHT22;6022;48.768;18.608;2024-01-15T09:58:58;0.90;99.90
11925;DHT22;6022;48.768;18.608;2024-01-15T10:01:28;0.80;99.90
11925;DHT22;6022;48.768;18.608;2024-01-15T10:03:56;0.90;99.90
11925;DHT22;6022;48.768;18.608;2024-01-15T10:06:23;0.90;99.90
11925;DHT22;6022;48.768;18.608;2024-01-15T10:08:51;1.20;99.90
11925;DHT22;6022;48.768;18.608;2024-01-15T10:11:18;1.10;99.90
11925;DHT22;6022;48.768;18.608;2024-01-15T10:13:46;1.70;99.90
11925;DHT22;6022;48.768;18.608;2024-01-15T10:16:16;1.80;99.90
11925;DHT22;6022;48.768;18.608;2024-01-15T10:18:43;1.80;99.90
11925;DHT22;6022;48.768;18.608;2024-01-15T10:21:11;1.80;99.90
11925;DHT22;6022;48.768;18.608;2024-01-15T10:23:38;1.90;99.90
11925;DHT22;6022;48.768;18.608;2024-01-15T10:26:05;1.80;99.90
11925;DHT22;6022;48.768;18.608;2024-01-15T10:28:32;1.70;99.90
11925;DHT22;6022;48.768;18.608;2024-01-15T10:31:00;1.50;99.90
11925;DHT22;6022;48.768;18.608;2024-01-15T10:33:28;1.30;99.90
11925;DHT22;6022;48.768;18.608;2024-01-15T10:35:57;1.20;99.90
11925;DHT22;6022;48.768;18.608;2024-01-15T10:38:25;1.50;99.90
11925;DHT22;6022;48.768;18.608;2024-01-15T10:40:56;1.50;99.90
11925;DHT22;6022;48.768;18.608;2024-01-15T10:43:23;2.00;99.90
11925;DHT22;6022;48.768;18.608;2024-01-15T10:45:54;1.80;99.90
11925;DHT22;6022;48.768;18.608;2024-01-15T10:48:22;1.80;99.90
11925;DHT22;6022;48.768;18.608;2024-01-15T10:50:50;2.00;99.90
11925;DHT22;6022;48.768;18.608;2024-01-15T10:53:17;1.80;99.90
11925;DHT22;6022;48.768;18.608;2024-01-15T10:55:46;2.20;99.90
11925;DHT22;6022;48.768;18.608;2024-01-15T10:58:16;2.20;99.90
11925;DHT22;6022;48.768;18.608;2024-01-15T11:00:46;2.30;99.90
11925;DHT22;6022;48.768;18.608;2024-01-15T11:03:14;2.20;99.90
11925;DHT22;6022;48.768;18.608;2024-01-15T11:05:44;2.10;99.90
11925;DHT22;6022;48.768;18.608;2024-01-15T11:08:12;2.10;99.90
11925;DHT22;6022;48.768;18.608;2024-01-15T11:13:13;2.30;99.90
11925;DHT22;6022;48.768;18.608;2024-01-15T11:18:29;2.10;99.90
11925;DHT22;6022;48.768;18.608;2024-01-15T11:26:45;2.00;99.90
11925;DHT22;6022;48.768;18.608;2024-01-15T11:29:29;1.90;99.90
11925;DHT22;6022;48.768;18.608;2024-01-15T11:32:07;1.70;99.90
11925;DHT22;6022;48.768;18.608;2024-01-15T11:34:53;1.90;99.90
11925;DHT22;6022;48.768;18.608;2024-01-15T11:37:22;1.70;99.90
11925;DHT22;6022;48.768;18.608;2024-01-15T11:40:03;1.30;99.90
11925;DHT22;6022;48.768;18.608;2024-01-15T11:42:37;1.20;99.90
11925;DHT22;6022;48.768;18.608;2024-01-15T11:45:05;1.50;99.90
11925;DHT22;6022;48.768;18.608;2024-01-15T11:50:30;1.50;99.90
11925;DHT22;6022;48.768;18.608;2024-01-15T11:53:03;1.80;99.90
11925;DHT22;6022;48.768;18.608;2024-01-15T11:55:39;1.80;99.90
11925;DHT22;6022;48.768;18.608;2024-01-15T11:58:09;1.30;99.90
11925;DHT22;6022;48.768;18.608;2024-01-15T12:00:40;1.70;99.90
11925;DHT22;6022;48.768;18.608;2024-01-15T12:03:09;1.70;99.90
11925;DHT22;6022;48.768;18.608;2024-01-15T12:05:37;1.30;99.90
11925;DHT22;6022;48.768;18.608;2024-01-15T12:08:05;1.80;99.90
11925;DHT22;6022;48.768;18.608;2024-01-15T12:10:38;1.20;99.90
11925;DHT22;6022;48.768;18.608;2024-01-15T12:13:15;1.40;99.90
11925;DHT22;6022;48.768;18.608;2024-01-15T12:15:43;1.50;99.90
11925;DHT22;6022;48.768;18.608;2024-01-15T12:18:17;1.70;99.90
11925;DHT22;6022;48.768;18.608;2024-01-15T12:20:46;1.40;99.90
11925;DHT22;6022;48.768;18.608;2024-01-15T12:23:17;1.40;99.90
11925;DHT22;6022;48.768;18.608;2024-01-15T12:25:45;1.20;99.90
11925;DHT22;6022;48.768;18.608;2024-01-15T12:28:13;1.40;99.90
11925;DHT22;6022;48.768;18.608;2024-01-15T12:30:40;1.10;99.90
11925;DHT22;6022;48.768;18.608;2024-01-15T12:33:07;1.20;99.90
11925;DHT22;6022;48.768;18.608;2024-01-15T12:35:36;1.40;99.90
11925;DHT22;6022;48.768;18.608;2024-01-15T12:38:04;1.50;99.90
11925;DHT22;6022;48.768;18.608;2024-01-15T12:40:32;1.30;99.90
11925;DHT22;6022;48.768;18.608;2024-01-15T12:43:03;1.50;99.90
11925;DHT22;6022;48.768;18.608;2024-01-15T12:45:30;1.50;99.90
11925;DHT22;6022;48.768;18.608;2024-01-15T12:47:58;1.60;99.90
11925;DHT22;6022;48.768;18.608;2024-01-15T12:50:27;1.50;99.90
11925;DHT22;6022;48.768;18.608;2024-01-15T12:52:54;1.60;99.90
11925;DHT22;6022;48.768;18.608;2024-01-15T12:55:21;1.60;99.90
11925;DHT22;6022;48.768;18.608;2024-01-15T12:57:49;1.50;99.90
11925;DHT22;6022;48.768;18.608;2024-01-15T13:00:20;1.80;99.90
11925;DHT22;6022;48.768;18.608;2024-01-15T13:02:47;1.70;99.90
11925;DHT22;6022;48.768;18.608;2024-01-15T13:05:16;1.30;99.90
11925;DHT22;6022;48.768;18.608;2024-01-15T13:07:44;1.30;99.90
11925;DHT22;6022;48.768;18.608;2024-01-15T13:10:11;1.60;99.90
11925;DHT22;6022;48.768;18.608;2024-01-15T13:12:40;1.80;99.90
11925;DHT22;6022;48.768;18.608;2024-01-15T13:15:08;1.60;99.90
11925;DHT22;6022;48.768;18.608;2024-01-15T13:17:41;1.50;99.90
11925;DHT22;6022;48.768;18.608;2024-01-15T13:20:09;1.70;99.90
11925;DHT22;6022;48.768;18.608;2024-01-15T13:22:38;1.70;99.90
11925;DHT22;6022;48.768;18.608;2024-01-15T13:25:07;1.50;99.90
11925;DHT22;6022;48.768;18.608;2024-01-15T13:27:35;1.70;99.90
11925;DHT22;6022;48.768;18.608;2024-01-15T13:30:05;1.60;99.90
11925;DHT22;6022;48.768;18.608;2024-01-15T13:32:34;1.30;99.90
11925;DHT22;6022;48.768;18.608;2024-01-15T13:35:01;1.20;99.90
11925;DHT22;6022;48.768;18.608;2024-01-15T13:37:32;1.60;99.90
11925;DHT22;6022;48.768;18.608;2024-01-15T13:39:59;1.30;99.90
11925;DHT22;6022;48.768;18.608;2024-01-15T13:42:26;1.20;99.90
11925;DHT22;6022;48.768;18.608;2024-01-15T13:44:54;1.10;99.90
11925;DHT22;6022;48.768;18.608;2024-01-15T13:47:21;1.40;99.90
11925;DHT22;6022;48.768;18.608;2024-01-15T13:49:49;1.40;99.90
11925;DHT22;6022;48.768;18.608;2024-01-15T13:52:16;1.40;99.90
11925;DHT22;6022;48.768;18.608;2024-01-15T13:54:43;1.60;99.90
11925;DHT22;6022;48.768;18.608;2024-01-15T13:57:17;1.60;99.90
11925;DHT22;6022;48.768;18.608;2024-01-15T13:59:45;1.60;99.90
11925;DHT22;6022;48.768;18.608;2024-01-15T14:02:13;1.50;99.90
11925;DHT22;6022;48.768;18.608;2024-01-15T14:04:49;1.10;99.90
11925;DHT22;6022;48.768;18.608;2024-01-15T14:07:16;1.60;99.90
11925;DHT22;6022;48.768;18.608;2024-01-15T14:09:44;1.20;99.90
11925;DHT22;6022;48.768;18.608;2024-01-15T14:12:11;1.50;99.90
11925;DHT22;6022;48.768;18.608;2024-01-15T14:14:39;1.60;99.90
11925;DHT22;6022;48.768;18.608;2024-01-15T14:17:07;1.20;99.90
11925;DHT22;6022;48.768;18.608;2024-01-15T14:19:34;1.60;99.90
11925;DHT22;6022;48.768;18.608;2024-01-15T14:22:03;1.20;99.90
11925;DHT22;6022;48.768;18.608;2024-01-15T14:24:30;1.10;99.90
11925;DHT22;6022;48.768;18.608;2024-01-15T14:26:57;1.60;99.90
11925;DHT22;6022;48.768;18.608;2024-01-15T14:29:25;1.10;99.90
11925;DHT22;6022;48.768;18.608;2024-01-15T14:31:53;1.40;99.90
11925;DHT22;6022;48.768;18.608;2024-01-15T14:34:21;1.10;99.90
11925;DHT22;6022;48.768;18.608;2024-01-15T14:36:51;1.60;99.90
11925;DHT22;6022;48.768;18.608;2024-01-15T14:39:24;1.60;99.90
11925;DHT22;6022;48.768;18.608;2024-01-15T14:41:53;1.50;99.90
11925;DHT22;6022;48.768;18.608;2024-01-15T14:44:20;1.60;99.90
11925;DHT22;6022;48.768;18.608;2024-01-15T14:46:48;1.60;99.90
11925;DHT22;6022;48.768;18.608;2024-01-15T14:49:15;1.60;99.90
11925;DHT22;6022;48.768;18.608;2024-01-15T14:51:44;1.70;99.90
11925;DHT22;6022;48.768;18.608;2024-01-15T14:54:11;1.70;99.90
11925;DHT22;6022;48.768;18.608;2024-01-15T14:56:39;1.50;99.90
11925;DHT22;6022;48.768;18.608;2024-01-15T14:59:06;1.60;99.90
11925;DHT22;6022;48.768;18.608;2024-01-15T15:01:33;1.60;99.90
11925;DHT22;6022;48.768;18.608;2024-01-15T15:04:00;1.70;99.90
11925;DHT22;6022;48.768;18.608;2024-01-15T15:06:27;1.40;99.90
11925;DHT22;6022;48.768;18.608;2024-01-15T15:08:55;1.80;99.90
11925;DHT22;6022;48.768;18.608;2024-01-15T15:11:25;1.50;99.90
11925;DHT22;6022;48.768;18.608;2024-01-15T15:13:55;1.50;99.90
11925;DHT22;6022;48.768;18.608;2024-01-15T15:16:22;1.40;99.90
11925;DHT22;6022;48.768;18.608;2024-01-15T15:18:49;1.20;99.90
11925;DHT22;6022;48.768;18.608;2024-01-15T15:21:17;1.30;99.90
11925;DHT22;6022;48.768;18.608;2024-01-15T15:23:44;1.50;99.90
11925;DHT22;6022;48.768;18.608;2024-01-15T15:26:11;1.10;99.90
11925;DHT22;6022;48.768;18.608;2024-01-15T15:28:39;1.50;99.90
11925;DHT22;6022;48.768;18.608;2024-01-15T15:31:06;1.40;99.90
11925;DHT22;6022;48.768;18.608;2024-01-15T15:33:45;1.30;99.90
11925;DHT22;6022;48.768;18.608;2024-01-15T15:36:12;1.30;99.90
11925;DHT22;6022;48.768;18.608;2024-01-15T15:38:40;1.50;99.90
11925;DHT22;6022;48.768;18.608;2024-01-15T15:41:07;0.90;99.90
11925;DHT22;6022;48.768;18.608;2024-01-15T15:43:35;1.30;99.90
11925;DHT22;6022;48.768;18.608;2024-01-15T15:46:02;1.30;99.90
11925;DHT22;6022;48.768;18.608;2024-01-15T15:48:31;1.40;99.90
11925;DHT22;6022;48.768;18.608;2024-01-15T15:50:58;1.10;99.90
11925;DHT22;6022;48.768;18.608;2024-01-15T15:53:30;1.10;99.90
11925;DHT22;6022;48.768;18.608;2024-01-15T15:55:57;1.00;99.90